Terminal Aerodrome Forecast
Issued by NWS

Home | Current Version | Previous Version | Text Only | Print | Product List | Glossary On
Versions: 1 2 3 4 5 6 7 8 9 10 11 12 13 14
000
FTUS43 KILX 241141
TAFDEC
TAF
KDEC 241141Z 2412/2512 18012KT P6SM -SHRA VCTS BKN008CB
      TEMPO 2412/2413 3SM TSRA BR BKN008CB
     FM241500 22014KT P6SM BKN050
     FM250000 20006KT P6SM VCTS BKN040CB
     FM250700 20006KT P6SM BKN070=

USA.gov is the U.S. government's official web portal to all federal, state and local government web resources and services.